sensor_id;sensor_type;location;lat;lon;timestamp;P1;durP1;ratioP1;P2;durP2;ratioP2
3211;SDS011;1618;47.056;15.472;2023-11-18T00:00:51;30.00;;;27.30;;
3211;SDS011;1618;47.056;15.472;2023-11-18T00:03:19;30.70;;;28.00;;
3211;SDS011;1618;47.056;15.472;2023-11-18T00:05:47;30.50;;;27.80;;
3211;SDS011;1618;47.056;15.472;2023-11-18T00:08:15;30.40;;;27.70;;
3211;SDS011;1618;47.056;15.472;2023-11-18T00:10:45;31.00;;;28.30;;
3211;SDS011;1618;47.056;15.472;2023-11-18T00:13:14;30.93;;;28.30;;
3211;SDS011;1618;47.056;15.472;2023-11-18T00:15:43;31.20;;;28.50;;
3211;SDS011;1618;47.056;15.472;2023-11-18T00:18:13;31.10;;;28.40;;
3211;SDS011;1618;47.056;15.472;2023-11-18T00:20:40;30.43;;;27.77;;
3211;SDS011;1618;47.056;15.472;2023-11-18T00:23:08;30.60;;;27.90;;
3211;SDS011;1618;47.056;15.472;2023-11-18T00:25:36;30.50;;;27.90;;
3211;SDS011;1618;47.056;15.472;2023-11-18T00:28:06;30.50;;;27.90;;
3211;SDS011;1618;47.056;15.472;2023-11-18T00:30:34;31.37;;;28.77;;
3211;SDS011;1618;47.056;15.472;2023-11-18T00:33:02;34.50;;;31.90;;
3211;SDS011;1618;47.056;15.472;2023-11-18T00:35:30;34.00;;;31.40;;
3211;SDS011;1618;47.056;15.472;2023-11-18T00:37:59;34.00;;;31.40;;
3211;SDS011;1618;47.056;15.472;2023-11-18T00:40:27;33.70;;;31.10;;
3211;SDS011;1618;47.056;15.472;2023-11-18T00:43:00;31.50;;;28.80;;
3211;SDS011;1618;47.056;15.472;2023-11-18T00:45:30;31.17;;;28.57;;
3211;SDS011;1618;47.056;15.472;2023-11-18T00:47:59;30.60;;;28.00;;
3211;SDS011;1618;47.056;15.472;2023-11-18T00:50:27;31.27;;;28.67;;
3211;SDS011;1618;47.056;15.472;2023-11-18T00:52:54;30.20;;;27.70;;
3211;SDS011;1618;47.056;15.472;2023-11-18T00:55:24;30.80;;;28.20;;
3211;SDS011;1618;47.056;15.472;2023-11-18T00:57:52;30.00;;;27.50;;
3211;SDS011;1618;47.056;15.472;2023-11-18T01:00:20;30.63;;;28.13;;
3211;SDS011;1618;47.056;15.472;2023-11-18T01:02:53;30.80;;;28.30;;
3211;SDS011;1618;47.056;15.472;2023-11-18T01:05:22;31.27;;;28.67;;
3211;SDS011;1618;47.056;15.472;2023-11-18T01:07:50;31.20;;;28.60;;
3211;SDS011;1618;47.056;15.472;2023-11-18T01:10:17;31.30;;;28.70;;
3211;SDS011;1618;47.056;15.472;2023-11-18T01:12:45;31.57;;;28.97;;
3211;SDS011;1618;47.056;15.472;2023-11-18T01:15:18;31.10;;;28.50;;
3211;SDS011;1618;47.056;15.472;2023-11-18T01:18:21;31.07;;;28.50;;
3211;SDS011;1618;47.056;15.472;2023-11-18T01:20:49;31.20;;;28.70;;
3211;SDS011;1618;47.056;15.472;2023-11-18T01:23:17;31.50;;;28.90;;
3211;SDS011;1618;47.056;15.472;2023-11-18T01:25:45;31.30;;;28.80;;
3211;SDS011;1618;47.056;15.472;2023-11-18T01:28:16;30.20;;;27.70;;
3211;SDS011;1618;47.056;15.472;2023-11-18T01:30:43;30.80;;;28.30;;
3211;SDS011;1618;47.056;15.472;2023-11-18T01:33:13;31.30;;;28.70;;
3211;SDS011;1618;47.056;15.472;2023-11-18T01:36:00;30.73;;;28.23;;
3211;SDS011;1618;47.056;15.472;2023-11-18T01:38:29;30.53;;;28.03;;
3211;SDS011;1618;47.056;15.472;2023-11-18T01:40:57;31.10;;;28.50;;
3211;SDS011;1618;47.056;15.472;2023-11-18T01:43:26;30.50;;;28.00;;
3211;SDS011;1618;47.056;15.472;2023-11-18T01:45:57;30.73;;;28.23;;
3211;SDS011;1618;47.056;15.472;2023-11-18T01:48:27;30.50;;;28.00;;
3211;SDS011;1618;47.056;15.472;2023-11-18T01:51:02;30.30;;;27.80;;
3211;SDS011;1618;47.056;15.472;2023-11-18T01:53:33;30.87;;;28.30;;
3211;SDS011;1618;47.056;15.472;2023-11-18T01:56:02;30.60;;;28.10;;
3211;SDS011;1618;47.056;15.472;2023-11-18T01:58:32;30.60;;;28.10;;
3211;SDS011;1618;47.056;15.472;2023-11-18T02:01:02;30.40;;;28.00;;
3211;SDS011;1618;47.056;15.472;2023-11-18T02:03:33;30.23;;;27.83;;
3211;SDS011;1618;47.056;15.472;2023-11-18T02:06:02;30.40;;;27.90;;
3211;SDS011;1618;47.056;15.472;2023-11-18T02:08:36;30.40;;;27.90;;
3211;SDS011;1618;47.056;15.472;2023-11-18T02:11:10;30.90;;;28.40;;
3211;SDS011;1618;47.056;15.472;2023-11-18T02:13:38;31.20;;;28.70;;
3211;SDS011;1618;47.056;15.472;2023-11-18T02:16:06;30.80;;;28.30;;
3211;SDS011;1618;47.056;15.472;2023-11-18T02:18:40;30.30;;;27.80;;
3211;SDS011;1618;47.056;15.472;2023-11-18T02:21:15;30.20;;;27.80;;
3211;SDS011;1618;47.056;15.472;2023-11-18T02:23:43;30.40;;;28.00;;
3211;SDS011;1618;47.056;15.472;2023-11-18T02:26:22;30.10;;;27.70;;
3211;SDS011;1618;47.056;15.472;2023-11-18T02:28:50;33.30;;;30.80;;
3211;SDS011;1618;47.056;15.472;2023-11-18T02:31:22;34.90;;;32.30;;
3211;SDS011;1618;47.056;15.472;2023-11-18T02:33:52;34.27;;;31.67;;
3211;SDS011;1618;47.056;15.472;2023-11-18T02:36:23;34.10;;;31.50;;
3211;SDS011;1618;47.056;15.472;2023-11-18T02:38:54;31.43;;;28.83;;
3211;SDS011;1618;47.056;15.472;2023-11-18T02:41:28;31.33;;;28.73;;
3211;SDS011;1618;47.056;15.472;2023-11-18T02:43:58;30.67;;;28.17;;
3211;SDS011;1618;47.056;15.472;2023-11-18T02:46:25;31.43;;;28.83;;
3211;SDS011;1618;47.056;15.472;2023-11-18T02:48:54;31.03;;;28.53;;
3211;SDS011;1618;47.056;15.472;2023-11-18T02:51:22;30.90;;;28.30;;
3211;SDS011;1618;47.056;15.472;2023-11-18T02:53:49;31.37;;;28.77;;
3211;SDS011;1618;47.056;15.472;2023-11-18T02:56:16;30.70;;;28.20;;
3211;SDS011;1618;47.056;15.472;2023-11-18T02:58:45;30.60;;;28.10;;
3211;SDS011;1618;47.056;15.472;2023-11-18T03:01:12;30.30;;;27.80;;
3211;SDS011;1618;47.056;15.472;2023-11-18T03:03:41;29.50;;;27.10;;
3211;SDS011;1618;47.056;15.472;2023-11-18T03:06:08;29.67;;;27.27;;
3211;SDS011;1618;47.056;15.472;2023-11-18T03:08:37;29.10;;;26.80;;
3211;SDS011;1618;47.056;15.472;2023-11-18T03:11:07;29.50;;;27.10;;
3211;SDS011;1618;47.056;15.472;2023-11-18T03:13:37;30.60;;;28.20;;
3211;SDS011;1618;47.056;15.472;2023-11-18T03:16:07;31.20;;;28.80;;
3211;SDS011;1618;47.056;15.472;2023-11-18T03:18:37;30.07;;;27.67;;
3211;SDS011;1618;47.056;15.472;2023-11-18T03:21:05;29.50;;;27.10;;
3211;SDS011;1618;47.056;15.472;2023-11-18T03:23:33;30.47;;;28.00;;
3211;SDS011;1618;47.056;15.472;2023-11-18T03:26:01;30.70;;;28.20;;
3211;SDS011;1618;47.056;15.472;2023-11-18T03:28:29;29.87;;;27.47;;
3211;SDS011;1618;47.056;15.472;2023-11-18T03:30:56;30.50;;;28.20;;
3211;SDS011;1618;47.056;15.472;2023-11-18T03:33:27;30.70;;;28.40;;
3211;SDS011;1618;47.056;15.472;2023-11-18T03:35:55;31.43;;;29.03;;
3211;SDS011;1618;47.056;15.472;2023-11-18T03:38:24;31.53;;;29.13;;
3211;SDS011;1618;47.056;15.472;2023-11-18T03:40:53;30.53;;;28.23;;
3211;SDS011;1618;47.056;15.472;2023-11-18T03:43:23;30.53;;;28.23;;
3211;SDS011;1618;47.056;15.472;2023-11-18T03:45:53;30.30;;;28.00;;
3211;SDS011;1618;47.056;15.472;2023-11-18T03:48:21;29.60;;;27.40;;
3211;SDS011;1618;47.056;15.472;2023-11-18T03:50:58;29.40;;;27.20;;
3211;SDS011;1618;47.056;15.472;2023-11-18T03:53:26;30.57;;;28.27;;
3211;SDS011;1618;47.056;15.472;2023-11-18T03:55:53;30.60;;;28.30;;
3211;SDS011;1618;47.056;15.472;2023-11-18T03:58:22;30.10;;;27.80;;
3211;SDS011;1618;47.056;15.472;2023-11-18T04:00:50;30.90;;;28.50;;
3211;SDS011;1618;47.056;15.472;2023-11-18T04:03:18;30.40;;;28.10;;
3211;SDS011;1618;47.056;15.472;2023-11-18T04:05:46;29.90;;;27.60;;
3211;SDS011;1618;47.056;15.472;2023-11-18T04:08:17;29.10;;;26.90;;
3211;SDS011;1618;47.056;15.472;2023-11-18T04:10:44;28.90;;;26.70;;
3211;SDS011;1618;47.056;15.472;2023-11-18T04:13:12;28.90;;;26.70;;
3211;SDS011;1618;47.056;15.472;2023-11-18T04:15:39;28.63;;;26.33;;
3211;SDS011;1618;47.056;15.472;2023-11-18T04:18:07;28.30;;;26.00;;
3211;SDS011;1618;47.056;15.472;2023-11-18T04:20:35;28.70;;;26.40;;
3211;SDS011;1618;47.056;15.472;2023-11-18T04:23:03;28.23;;;26.03;;
3211;SDS011;1618;47.056;15.472;2023-11-18T04:25:31;28.30;;;26.00;;
3211;SDS011;1618;47.056;15.472;2023-11-18T04:27:59;31.30;;;29.10;;
3211;SDS011;1618;47.056;15.472;2023-11-18T04:30:27;31.50;;;29.23;;
3211;SDS011;1618;47.056;15.472;2023-11-18T04:32:56;31.03;;;28.83;;
3211;SDS011;1618;47.056;15.472;2023-11-18T04:35:27;31.37;;;29.17;;
3211;SDS011;1618;47.056;15.472;2023-11-18T04:37:56;28.70;;;26.40;;
3211;SDS011;1618;47.056;15.472;2023-11-18T04:40:24;28.60;;;26.30;;
3211;SDS011;1618;47.056;15.472;2023-11-18T04:42:53;28.70;;;26.40;;
3211;SDS011;1618;47.056;15.472;2023-11-18T04:45:21;29.37;;;27.07;;
3211;SDS011;1618;47.056;15.472;2023-11-18T04:47:48;28.73;;;26.43;;
3211;SDS011;1618;47.056;15.472;2023-11-18T04:50:18;29.43;;;27.13;;
3211;SDS011;1618;47.056;15.472;2023-11-18T04:52:46;29.10;;;26.80;;
3211;SDS011;1618;47.056;15.472;2023-11-18T04:55:13;28.67;;;26.37;;
3211;SDS011;1618;47.056;15.472;2023-11-18T04:57:40;29.60;;;27.33;;
3211;SDS011;1618;47.056;15.472;2023-11-18T05:00:10;29.60;;;27.30;;
3211;SDS011;1618;47.056;15.472;2023-11-18T05:02:42;29.83;;;27.53;;
3211;SDS011;1618;47.056;15.472;2023-11-18T05:05:14;29.43;;;27.13;;
3211;SDS011;1618;47.056;15.472;2023-11-18T05:07:44;29.03;;;26.83;;
3211;SDS011;1618;47.056;15.472;2023-11-18T05:10:12;28.63;;;26.33;;
3211;SDS011;1618;47.056;15.472;2023-11-18T05:12:39;28.20;;;25.90;;
3211;SDS011;1618;47.056;15.472;2023-11-18T05:15:10;28.50;;;26.20;;
3211;SDS011;1618;47.056;15.472;2023-11-18T05:17:37;28.63;;;26.27;;
3211;SDS011;1618;47.056;15.472;2023-11-18T05:20:05;28.37;;;26.17;;
3211;SDS011;1618;47.056;15.472;2023-11-18T05:22:35;28.47;;;26.27;;
3211;SDS011;1618;47.056;15.472;2023-11-18T05:25:04;28.53;;;26.33;;
3211;SDS011;1618;47.056;15.472;2023-11-18T05:27:32;29.03;;;26.73;;
3211;SDS011;1618;47.056;15.472;2023-11-18T05:29:59;29.30;;;27.00;;
3211;SDS011;1618;47.056;15.472;2023-11-18T05:32:28;29.30;;;27.00;;
3211;SDS011;1618;47.056;15.472;2023-11-18T05:34:56;29.00;;;26.70;;
3211;SDS011;1618;47.056;15.472;2023-11-18T05:37:24;29.73;;;27.43;;
3211;SDS011;1618;47.056;15.472;2023-11-18T05:39:53;29.80;;;27.50;;
3211;SDS011;1618;47.056;15.472;2023-11-18T05:42:24;29.30;;;27.00;;
3211;SDS011;1618;47.056;15.472;2023-11-18T05:44:52;29.10;;;26.80;;
3211;SDS011;1618;47.056;15.472;2023-11-18T05:47:25;28.43;;;26.23;;
3211;SDS011;1618;47.056;15.472;2023-11-18T05:49:54;35.80;;;33.40;;
3211;SDS011;1618;47.056;15.472;2023-11-18T05:52:21;28.87;;;26.67;;
3211;SDS011;1618;47.056;15.472;2023-11-18T05:54:51;42.07;;;39.47;;
3211;SDS011;1618;47.056;15.472;2023-11-18T05:57:20;44.50;;;41.80;;
3211;SDS011;1618;47.056;15.472;2023-11-18T05:59:48;46.50;;;43.70;;
3211;SDS011;1618;47.056;15.472;2023-11-18T06:02:16;42.33;;;39.73;;
3211;SDS011;1618;47.056;15.472;2023-11-18T06:04:45;37.43;;;35.03;;
3211;SDS011;1618;47.056;15.472;2023-11-18T06:07:16;35.67;;;33.27;;
3211;SDS011;1618;47.056;15.472;2023-11-18T06:09:44;40.60;;;38.00;;
3211;SDS011;1618;47.056;15.472;2023-11-18T06:12:13;45.90;;;43.10;;
3211;SDS011;1618;47.056;15.472;2023-11-18T06:14:42;50.30;;;47.17;;
3211;SDS011;1618;47.056;15.472;2023-11-18T06:17:13;34.07;;;31.80;;
3211;SDS011;1618;47.056;15.472;2023-11-18T06:19:45;37.40;;;34.70;;
3211;SDS011;1618;47.056;15.472;2023-11-18T06:22:16;37.10;;;34.50;;
3211;SDS011;1618;47.056;15.472;2023-11-18T06:24:43;37.33;;;34.73;;
3211;SDS011;1618;47.056;15.472;2023-11-18T06:27:12;37.43;;;34.83;;
3211;SDS011;1618;47.056;15.472;2023-11-18T06:29:41;37.23;;;34.53;;
3211;SDS011;1618;47.056;15.472;2023-11-18T06:32:09;36.70;;;34.00;;
3211;SDS011;1618;47.056;15.472;2023-11-18T06:34:38;36.00;;;33.30;;
3211;SDS011;1618;47.056;15.472;2023-11-18T06:37:07;35.13;;;32.53;;
3211;SDS011;1618;47.056;15.472;2023-11-18T06:39:42;33.83;;;31.43;;
3211;SDS011;1618;47.056;15.472;2023-11-18T06:42:14;31.30;;;29.00;;
3211;SDS011;1618;47.056;15.472;2023-11-18T06:44:43;32.00;;;29.70;;
3211;SDS011;1618;47.056;15.472;2023-11-18T06:47:10;31.63;;;29.27;;
3211;SDS011;1618;47.056;15.472;2023-11-18T06:49:39;31.13;;;28.83;;
3211;SDS011;1618;47.056;15.472;2023-11-18T06:52:10;31.50;;;29.10;;
3211;SDS011;1618;47.056;15.472;2023-11-18T06:54:41;32.57;;;30.07;;
3211;SDS011;1618;47.056;15.472;2023-11-18T06:57:10;32.17;;;29.67;;
3211;SDS011;1618;47.056;15.472;2023-11-18T06:59:39;33.03;;;30.53;;
3211;SDS011;1618;47.056;15.472;2023-11-18T07:08:14;31.87;;;29.57;;
3211;SDS011;1618;47.056;15.472;2023-11-18T07:10:44;30.65;;;28.25;;
3211;SDS011;1618;47.056;15.472;2023-11-18T07:13:13;32.40;;;30.00;;
3211;SDS011;1618;47.056;15.472;2023-11-18T07:15:41;32.03;;;29.53;;
3211;SDS011;1618;47.056;15.472;2023-11-18T07:18:10;31.33;;;28.93;;
3211;SDS011;1618;47.056;15.472;2023-11-18T07:20:38;32.07;;;29.63;;
3211;SDS011;1618;47.056;15.472;2023-11-18T07:23:07;32.60;;;30.10;;
3211;SDS011;1618;47.056;15.472;2023-11-18T07:25:35;31.90;;;29.50;;
3211;SDS011;1618;47.056;15.472;2023-11-18T07:28:08;32.60;;;30.10;;
3211;SDS011;1618;47.056;15.472;2023-11-18T07:30:37;32.70;;;30.20;;
3211;SDS011;1618;47.056;15.472;2023-11-18T07:33:04;32.53;;;30.03;;
3211;SDS011;1618;47.056;15.472;2023-11-18T07:35:35;33.00;;;30.50;;
3211;SDS011;1618;47.056;15.472;2023-11-18T07:38:03;31.20;;;28.80;;
3211;SDS011;1618;47.056;15.472;2023-11-18T07:40:34;32.30;;;29.80;;
3211;SDS011;1618;47.056;15.472;2023-11-18T07:43:03;30.97;;;28.57;;
3211;SDS011;1618;47.056;15.472;2023-11-18T07:45:35;32.00;;;29.60;;
3211;SDS011;1618;47.056;15.472;2023-11-18T07:48:05;31.27;;;28.90;;
3211;SDS011;1618;47.056;15.472;2023-11-18T07:50:34;31.53;;;29.20;;
3211;SDS011;1618;47.056;15.472;2023-11-18T07:53:01;31.83;;;29.53;;
3211;SDS011;1618;47.056;15.472;2023-11-18T07:55:32;31.50;;;29.20;;
3211;SDS011;1618;47.056;15.472;2023-11-18T07:58:01;31.90;;;29.50;;
3211;SDS011;1618;47.056;15.472;2023-11-18T08:00:31;32.50;;;30.10;;
3211;SDS011;1618;47.056;15.472;2023-11-18T08:03:00;32.30;;;29.90;;
3211;SDS011;1618;47.056;15.472;2023-11-18T08:05:29;32.50;;;30.07;;
3211;SDS011;1618;47.056;15.472;2023-11-18T08:07:57;33.07;;;30.67;;
3211;SDS011;1618;47.056;15.472;2023-11-18T08:10:27;32.97;;;30.40;;
3211;SDS011;1618;47.056;15.472;2023-11-18T08:12:58;33.67;;;31.17;;
3211;SDS011;1618;47.056;15.472;2023-11-18T08:15:26;33.03;;;30.53;;
3211;SDS011;1618;47.056;15.472;2023-11-18T08:17:55;32.77;;;30.27;;
3211;SDS011;1618;47.056;15.472;2023-11-18T08:20:24;33.17;;;30.67;;
3211;SDS011;1618;47.056;15.472;2023-11-18T08:22:52;32.40;;;30.00;;
3211;SDS011;1618;47.056;15.472;2023-11-18T08:25:21;32.80;;;30.30;;
3211;SDS011;1618;47.056;15.472;2023-11-18T08:27:48;34.13;;;31.53;;
3211;SDS011;1618;47.056;15.472;2023-11-18T08:30:16;34.83;;;32.13;;
3211;SDS011;1618;47.056;15.472;2023-11-18T08:32:47;35.17;;;32.47;;
3211;SDS011;1618;47.056;15.472;2023-11-18T08:35:17;33.73;;;31.03;;
3211;SDS011;1618;47.056;15.472;2023-11-18T08:37:47;34.17;;;31.37;;
3211;SDS011;1618;47.056;15.472;2023-11-18T08:40:16;34.20;;;31.50;;
3211;SDS011;1618;47.056;15.472;2023-11-18T08:42:47;33.80;;;31.10;;
3211;SDS011;1618;47.056;15.472;2023-11-18T08:45:27;32.40;;;29.90;;
3211;SDS011;1618;47.056;15.472;2023-11-18T08:47:55;34.13;;;31.60;;
3211;SDS011;1618;47.056;15.472;2023-11-18T08:50:23;32.50;;;29.90;;
3211;SDS011;1618;47.056;15.472;2023-11-18T08:52:52;31.63;;;29.03;;
3211;SDS011;1618;47.056;15.472;2023-11-18T08:55:25;32.50;;;29.90;;
3211;SDS011;1618;47.056;15.472;2023-11-18T08:58:05;32.17;;;29.47;;
3211;SDS011;1618;47.056;15.472;2023-11-18T09:00:41;32.80;;;30.10;;
3211;SDS011;1618;47.056;15.472;2023-11-18T09:03:13;33.80;;;31.00;;
3211;SDS011;1618;47.056;15.472;2023-11-18T09:05:49;33.13;;;30.23;;
3211;SDS011;1618;47.056;15.472;2023-11-18T09:08:28;33.87;;;31.27;;
3211;SDS011;1618;47.056;15.472;2023-11-18T09:10:58;34.80;;;32.10;;
3211;SDS011;1618;47.056;15.472;2023-11-18T09:13:28;34.80;;;32.10;;
3211;SDS011;1618;47.056;15.472;2023-11-18T09:15:56;33.83;;;31.23;;
3211;SDS011;1618;47.056;15.472;2023-11-18T09:18:27;34.30;;;31.60;;
3211;SDS011;1618;47.056;15.472;2023-11-18T09:20:55;34.73;;;32.03;;
3211;SDS011;1618;47.056;15.472;2023-11-18T09:23:25;35.07;;;32.37;;
3211;SDS011;1618;47.056;15.472;2023-11-18T09:25:55;33.37;;;30.77;;
3211;SDS011;1618;47.056;15.472;2023-11-18T09:28:24;36.10;;;33.40;;
3211;SDS011;1618;47.056;15.472;2023-11-18T09:30:53;33.47;;;30.77;;
3211;SDS011;1618;47.056;15.472;2023-11-18T09:33:24;35.93;;;33.20;;
3211;SDS011;1618;47.056;15.472;2023-11-18T09:35:55;34.27;;;31.67;;
3211;SDS011;1618;47.056;15.472;2023-11-18T09:38:26;35.37;;;32.77;;
3211;SDS011;1618;47.056;15.472;2023-11-18T09:40:58;32.87;;;30.27;;
3211;SDS011;1618;47.056;15.472;2023-11-18T09:43:28;36.10;;;33.40;;
3211;SDS011;1618;47.056;15.472;2023-11-18T09:46:02;34.73;;;32.13;;
3211;SDS011;1618;47.056;15.472;2023-11-18T09:48:33;34.93;;;32.33;;
3211;SDS011;1618;47.056;15.472;2023-11-18T09:51:06;34.07;;;31.37;;
3211;SDS011;1618;47.056;15.472;2023-11-18T09:53:34;34.40;;;31.60;;
3211;SDS011;1618;47.056;15.472;2023-11-18T09:56:07;34.90;;;32.00;;
3211;SDS011;1618;47.056;15.472;2023-11-18T09:58:45;35.10;;;32.20;;
3211;SDS011;1618;47.056;15.472;2023-11-18T10:01:19;35.63;;;32.63;;
3211;SDS011;1618;47.056;15.472;2023-11-18T10:03:48;34.17;;;31.20;;
3211;SDS011;1618;47.056;15.472;2023-11-18T10:06:19;34.07;;;31.17;;
3211;SDS011;1618;47.056;15.472;2023-11-18T10:08:47;34.00;;;31.10;;
3211;SDS011;1618;47.056;15.472;2023-11-18T10:11:19;33.27;;;30.30;;
3211;SDS011;1618;47.056;15.472;2023-11-18T10:13:47;34.43;;;31.53;;
3211;SDS011;1618;47.056;15.472;2023-11-18T10:16:16;34.27;;;31.47;;
3211;SDS011;1618;47.056;15.472;2023-11-18T10:18:44;37.97;;;34.97;;
3211;SDS011;1618;47.056;15.472;2023-11-18T10:21:15;34.70;;;31.90;;
3211;SDS011;1618;47.056;15.472;2023-11-18T10:26:29;35.93;;;33.13;;
3211;SDS011;1618;47.056;15.472;2023-11-18T10:29:04;36.40;;;33.50;;
3211;SDS011;1618;47.056;15.472;2023-11-18T10:31:34;36.67;;;33.73;;
3211;SDS011;1618;47.056;15.472;2023-11-18T10:34:03;36.87;;;33.87;;
3211;SDS011;1618;47.056;15.472;2023-11-18T10:36:31;36.10;;;33.20;;
3211;SDS011;1618;47.056;15.472;2023-11-18T10:39:01;36.47;;;33.57;;
3211;SDS011;1618;47.056;15.472;2023-11-18T10:41:41;38.33;;;35.33;;
3211;SDS011;1618;47.056;15.472;2023-11-18T10:44:12;36.43;;;33.53;;
3211;SDS011;1618;47.056;15.472;2023-11-18T10:46:44;37.53;;;34.53;;
3211;SDS011;1618;47.056;15.472;2023-11-18T10:49:19;36.10;;;33.30;;
3211;SDS011;1618;47.056;15.472;2023-11-18T10:51:50;35.93;;;33.13;;
3211;SDS011;1618;47.056;15.472;2023-11-18T10:54:19;36.00;;;33.10;;
3211;SDS011;1618;47.056;15.472;2023-11-18T10:56:49;37.77;;;34.83;;
3211;SDS011;1618;47.056;15.472;2023-11-18T10:59:26;38.27;;;35.27;;
3211;SDS011;1618;47.056;15.472;2023-11-18T11:01:54;38.00;;;34.90;;
3211;SDS011;1618;47.056;15.472;2023-11-18T11:04:27;36.33;;;33.33;;
3211;SDS011;1618;47.056;15.472;2023-11-18T11:07:10;35.63;;;32.63;;
3211;SDS011;1618;47.056;15.472;2023-11-18T11:09:40;35.50;;;32.50;;
3211;SDS011;1618;47.056;15.472;2023-11-18T11:12:12;35.00;;;32.10;;
3211;SDS011;1618;47.056;15.472;2023-11-18T11:14:53;35.10;;;32.20;;
3211;SDS011;1618;47.056;15.472;2023-11-18T11:17:23;33.60;;;30.50;;
3211;SDS011;1618;47.056;15.472;2023-11-18T11:19:58;32.60;;;29.50;;
3211;SDS011;1618;47.056;15.472;2023-11-18T11:22:37;33.03;;;29.90;;
3211;SDS011;1618;47.056;15.472;2023-11-18T11:25:09;34.13;;;30.93;;
3211;SDS011;1618;47.056;15.472;2023-11-18T11:27:41;33.47;;;30.23;;
3211;SDS011;1618;47.056;15.472;2023-11-18T11:30:22;33.43;;;30.13;;
3211;SDS011;1618;47.056;15.472;2023-11-18T11:32:51;34.17;;;30.77;;
3211;SDS011;1618;47.056;15.472;2023-11-18T11:35:22;33.80;;;30.50;;
3211;SDS011;1618;47.056;15.472;2023-11-18T11:37:52;35.07;;;31.80;;
3211;SDS011;1618;47.056;15.472;2023-11-18T11:40:30;35.30;;;32.20;;
3211;SDS011;1618;47.056;15.472;2023-11-18T11:43:01;36.17;;;33.00;;
3211;SDS011;1618;47.056;15.472;2023-11-18T11:45:30;35.20;;;32.20;;
3211;SDS011;1618;47.056;15.472;2023-11-18T11:47:59;35.70;;;32.70;;
3211;SDS011;1618;47.056;15.472;2023-11-18T11:50:53;36.70;;;33.50;;
3211;SDS011;1618;47.056;15.472;2023-11-18T11:53:24;37.27;;;34.07;;
3211;SDS011;1618;47.056;15.472;2023-11-18T11:55:55;36.43;;;33.43;;
3211;SDS011;1618;47.056;15.472;2023-11-18T11:58:34;35.13;;;32.13;;
3211;SDS011;1618;47.056;15.472;2023-11-18T12:01:14;35.50;;;32.50;;
3211;SDS011;1618;47.056;15.472;2023-11-18T12:03:46;36.63;;;33.63;;
3211;SDS011;1618;47.056;15.472;2023-11-18T12:06:17;37.07;;;34.13;;
3211;SDS011;1618;47.056;15.472;2023-11-18T12:08:50;37.57;;;34.67;;
3211;SDS011;1618;47.056;15.472;2023-11-18T12:11:19;36.73;;;33.73;;
3211;SDS011;1618;47.056;15.472;2023-11-18T12:14:01;36.20;;;33.10;;
3211;SDS011;1618;47.056;15.472;2023-11-18T12:17:03;37.80;;;34.70;;
3211;SDS011;1618;47.056;15.472;2023-11-18T12:19:35;37.93;;;34.83;;
3211;SDS011;1618;47.056;15.472;2023-11-18T12:22:11;38.90;;;35.80;;
3211;SDS011;1618;47.056;15.472;2023-11-18T12:27:44;37.73;;;34.53;;
3211;SDS011;1618;47.056;15.472;2023-11-18T12:33:07;37.20;;;34.00;;
3211;SDS011;1618;47.056;15.472;2023-11-18T12:35:38;36.23;;;33.13;;
3211;SDS011;1618;47.056;15.472;2023-11-18T12:38:13;35.50;;;32.40;;
3211;SDS011;1618;47.056;15.472;2023-11-18T12:40:52;37.87;;;34.77;;
3211;SDS011;1618;47.056;15.472;2023-11-18T12:43:33;38.50;;;35.33;;
3211;SDS011;1618;47.056;15.472;2023-11-18T12:46:15;38.80;;;35.60;;
3211;SDS011;1618;47.056;15.472;2023-11-18T12:48:55;37.33;;;34.13;;
3211;SDS011;1618;47.056;15.472;2023-11-18T12:51:26;38.03;;;34.93;;
3211;SDS011;1618;47.056;15.472;2023-11-18T12:53:54;38.20;;;35.00;;
3211;SDS011;1618;47.056;15.472;2023-11-18T12:56:23;40.10;;;36.70;;
3211;SDS011;1618;47.056;15.472;2023-11-18T12:58:51;38.10;;;35.00;;
3211;SDS011;1618;47.056;15.472;2023-11-18T13:01:20;38.07;;;34.87;;
3211;SDS011;1618;47.056;15.472;2023-11-18T13:03:48;38.07;;;34.87;;
3211;SDS011;1618;47.056;15.472;2023-11-18T13:06:21;37.53;;;34.33;;
3211;SDS011;1618;47.056;15.472;2023-11-18T13:08:54;36.80;;;33.60;;
3211;SDS011;1618;47.056;15.472;2023-11-18T13:11:28;37.43;;;34.17;;
3211;SDS011;1618;47.056;15.472;2023-11-18T13:14:01;37.27;;;34.17;;
3211;SDS011;1618;47.056;15.472;2023-11-18T13:16:31;36.90;;;33.90;;
3211;SDS011;1618;47.056;15.472;2023-11-18T13:18:59;37.10;;;34.00;;
3211;SDS011;1618;47.056;15.472;2023-11-18T13:21:33;38.13;;;34.97;;
3211;SDS011;1618;47.056;15.472;2023-11-18T13:24:02;38.20;;;35.10;;
3211;SDS011;1618;47.056;15.472;2023-11-18T13:26:30;38.27;;;35.17;;
3211;SDS011;1618;47.056;15.472;2023-11-18T13:29:00;37.80;;;34.70;;
3211;SDS011;1618;47.056;15.472;2023-11-18T13:31:29;38.60;;;35.40;;
3211;SDS011;1618;47.056;15.472;2023-11-18T13:33:57;39.57;;;36.37;;
3211;SDS011;1618;47.056;15.472;2023-11-18T13:36:25;38.70;;;35.60;;
3211;SDS011;1618;47.056;15.472;2023-11-18T13:38:56;38.20;;;35.10;;
3211;SDS011;1618;47.056;15.472;2023-11-18T13:41:28;37.90;;;34.90;;
3211;SDS011;1618;47.056;15.472;2023-11-18T13:43:56;35.70;;;32.80;;
3211;SDS011;1618;47.056;15.472;2023-11-18T13:46:24;35.10;;;32.10;;
3211;SDS011;1618;47.056;15.472;2023-11-18T13:48:54;34.13;;;30.93;;
3211;SDS011;1618;47.056;15.472;2023-11-18T13:51:22;35.10;;;31.80;;
3211;SDS011;1618;47.056;15.472;2023-11-18T13:53:50;35.47;;;32.17;;
3211;SDS011;1618;47.056;15.472;2023-11-18T13:56:21;35.43;;;32.23;;
3211;SDS011;1618;47.056;15.472;2023-11-18T13:58:48;35.53;;;32.30;;
3211;SDS011;1618;47.056;15.472;2023-11-18T14:01:17;34.83;;;31.63;;
3211;SDS011;1618;47.056;15.472;2023-11-18T14:03:44;34.73;;;31.63;;
3211;SDS011;1618;47.056;15.472;2023-11-18T14:06:13;35.20;;;31.90;;
3211;SDS011;1618;47.056;15.472;2023-11-18T14:08:42;34.93;;;31.73;;
3211;SDS011;1618;47.056;15.472;2023-11-18T14:11:11;34.40;;;31.30;;
3211;SDS011;1618;47.056;15.472;2023-11-18T14:13:42;36.87;;;33.97;;
